sensor_id;sensor_type;location;lat;lon;timestamp;pressure;altitude;pressure_sealevel;temperature;humidity
804;BME280;25687;49.976;8.240;2022-12-18T00:01:30;101462.28;;;-9.11;100.00
804;BME280;25687;49.976;8.240;2022-12-18T00:03:57;101461.66;;;-9.06;100.00
804;BME280;25687;49.976;8.240;2022-12-18T00:06:25;101466.25;;;-9.14;100.00
804;BME280;25687;49.976;8.240;2022-12-18T00:08:51;101452.44;;;-9.26;100.00
804;BME280;25687;49.976;8.240;2022-12-18T00:11:19;101458.84;;;-9.31;100.00
804;BME280;25687;49.976;8.240;2022-12-18T00:13:45;101457.81;;;-9.52;100.00
804;BME280;25687;49.976;8.240;2022-12-18T00:16:12;101457.47;;;-9.42;100.00
804;BME280;25687;49.976;8.240;2022-12-18T00:18:38;101457.31;;;-9.45;100.00
804;BME280;25687;49.976;8.240;2022-12-18T00:21:06;101465.78;;;-9.42;100.00
804;BME280;25687;49.976;8.240;2022-12-18T00:23:33;101462.03;;;-9.33;100.00
804;BME280;25687;49.976;8.240;2022-12-18T00:26:01;101453.44;;;-9.40;100.00
804;BME280;25687;49.976;8.240;2022-12-18T00:28:26;101458.31;;;-9.42;100.00
804;BME280;25687;49.976;8.240;2022-12-18T00:31:03;101455.41;;;-9.33;100.00
804;BME280;25687;49.976;8.240;2022-12-18T00:33:29;101459.56;;;-9.33;100.00
804;BME280;25687;49.976;8.240;2022-12-18T00:35:54;101465.19;;;-9.37;100.00
804;BME280;25687;49.976;8.240;2022-12-18T00:38:19;101473.03;;;-9.30;100.00
804;BME280;25687;49.976;8.240;2022-12-18T00:40:45;101464.16;;;-9.41;100.00
804;BME280;25687;49.976;8.240;2022-12-18T00:43:10;101461.28;;;-9.49;100.00
804;BME280;25687;49.976;8.240;2022-12-18T00:45:35;101464.16;;;-9.41;100.00
804;BME280;25687;49.976;8.240;2022-12-18T00:48:01;101464.06;;;-9.43;100.00
804;BME280;25687;49.976;8.240;2022-12-18T00:50:26;101464.31;;;-9.38;100.00
804;BME280;25687;49.976;8.240;2022-12-18T00:52:51;101462.53;;;-9.41;100.00
804;BME280;25687;49.976;8.240;2022-12-18T00:55:17;101459.38;;;-9.36;100.00
804;BME280;25687;49.976;8.240;2022-12-18T00:57:43;101464.00;;;-9.44;100.00
804;BME280;25687;49.976;8.240;2022-12-18T01:00:12;101467.56;;;-9.39;100.00
804;BME280;25687;49.976;8.240;2022-12-18T01:02:38;101465.38;;;-9.33;100.00
804;BME280;25687;49.976;8.240;2022-12-18T01:05:04;101468.91;;;-9.46;100.00
804;BME280;25687;49.976;8.240;2022-12-18T01:07:30;101464.34;;;-9.54;100.00
804;BME280;25687;49.976;8.240;2022-12-18T01:09:55;101468.75;;;-9.49;100.00
804;BME280;25687;49.976;8.240;2022-12-18T01:12:20;101472.25;;;-9.45;100.00
804;BME280;25687;49.976;8.240;2022-12-18T01:14:45;101473.06;;;-9.46;100.00
804;BME280;25687;49.976;8.240;2022-12-18T01:17:11;101472.91;;;-9.49;100.00
804;BME280;25687;49.976;8.240;2022-12-18T01:19:36;101469.06;;;-9.43;100.00
804;BME280;25687;49.976;8.240;2022-12-18T01:22:01;101471.84;;;-9.36;100.00
804;BME280;25687;49.976;8.240;2022-12-18T01:24:27;101471.38;;;-9.29;100.00
804;BME280;25687;49.976;8.240;2022-12-18T01:26:52;101476.34;;;-9.29;100.00
804;BME280;25687;49.976;8.240;2022-12-18T01:29:17;101477.78;;;-9.34;100.00
804;BME280;25687;49.976;8.240;2022-12-18T01:31:43;101478.25;;;-9.42;100.00
804;BME280;25687;49.976;8.240;2022-12-18T01:34:08;101487.91;;;-9.48;100.00
804;BME280;25687;49.976;8.240;2022-12-18T01:36:37;101502.97;;;-9.46;100.00
804;BME280;25687;49.976;8.240;2022-12-18T01:39:10;101500.38;;;-9.48;100.00
804;BME280;25687;49.976;8.240;2022-12-18T01:41:36;101501.38;;;-9.44;100.00
804;BME280;25687;49.976;8.240;2022-12-18T01:47:23;101498.91;;;-9.61;100.00
804;BME280;25687;49.976;8.240;2022-12-18T01:49:50;101496.56;;;-9.58;100.00
804;BME280;25687;49.976;8.240;2022-12-18T01:52:17;101482.72;;;-9.69;100.00
804;BME280;25687;49.976;8.240;2022-12-18T01:54:43;101484.41;;;-10.01;100.00
804;BME280;25687;49.976;8.240;2022-12-18T01:57:12;101476.34;;;-9.97;100.00
804;BME280;25687;49.976;8.240;2022-12-18T01:59:38;101473.47;;;-9.88;100.00
804;BME280;25687;49.976;8.240;2022-12-18T02:02:06;101483.56;;;-9.85;100.00
804;BME280;25687;49.976;8.240;2022-12-18T02:04:32;101485.59;;;-9.78;100.00
804;BME280;25687;49.976;8.240;2022-12-18T02:09:59;101478.06;;;-9.79;100.00
804;BME280;25687;49.976;8.240;2022-12-18T02:12:30;101482.16;;;-9.80;100.00
804;BME280;25687;49.976;8.240;2022-12-18T02:15:06;101486.94;;;-9.84;100.00
804;BME280;25687;49.976;8.240;2022-12-18T02:17:43;101475.19;;;-9.87;100.00
804;BME280;25687;49.976;8.240;2022-12-18T02:23:06;101468.50;;;-9.88;100.00
804;BME280;25687;49.976;8.240;2022-12-18T02:28:13;101464.88;;;-10.10;100.00
804;BME280;25687;49.976;8.240;2022-12-18T02:30:42;101454.16;;;-10.09;100.00
804;BME280;25687;49.976;8.240;2022-12-18T02:33:10;101452.00;;;-10.19;100.00
804;BME280;25687;49.976;8.240;2022-12-18T02:35:38;101451.13;;;-10.19;100.00
804;BME280;25687;49.976;8.240;2022-12-18T02:38:05;101451.28;;;-10.16;100.00
804;BME280;25687;49.976;8.240;2022-12-18T02:40:31;101449.50;;;-10.02;100.00
804;BME280;25687;49.976;8.240;2022-12-18T02:43:12;101444.84;;;-10.13;100.00
804;BME280;25687;49.976;8.240;2022-12-18T02:45:53;101448.16;;;-10.12;100.00
804;BME280;25687;49.976;8.240;2022-12-18T02:48:23;101455.63;;;-10.12;100.00
804;BME280;25687;49.976;8.240;2022-12-18T02:53:51;101462.63;;;-10.22;100.00
804;BME280;25687;49.976;8.240;2022-12-18T02:56:29;101459.44;;;-10.19;100.00
804;BME280;25687;49.976;8.240;2022-12-18T02:59:00;101459.38;;;-10.20;100.00
804;BME280;25687;49.976;8.240;2022-12-18T03:04:13;101459.06;;;-10.27;100.00
804;BME280;25687;49.976;8.240;2022-12-18T03:06:50;101460.09;;;-10.23;100.00
804;BME280;25687;49.976;8.240;2022-12-18T03:09:29;101466.44;;;-10.28;100.00
804;BME280;25687;49.976;8.240;2022-12-18T03:12:02;101470.81;;;-10.24;100.00
804;BME280;25687;49.976;8.240;2022-12-18T03:14:52;101468.91;;;-10.28;100.00
804;BME280;25687;49.976;8.240;2022-12-18T03:17:20;101459.91;;;-10.43;100.00
804;BME280;25687;49.976;8.240;2022-12-18T03:19:49;101468.34;;;-10.56;100.00
804;BME280;25687;49.976;8.240;2022-12-18T03:22:16;101460.63;;;-10.45;100.00
804;BME280;25687;49.976;8.240;2022-12-18T03:24:45;101451.75;;;-10.40;100.00
804;BME280;25687;49.976;8.240;2022-12-18T03:27:13;101452.78;;;-10.36;100.00
804;BME280;25687;49.976;8.240;2022-12-18T03:30:04;101464.03;;;-10.43;100.00
804;BME280;25687;49.976;8.240;2022-12-18T03:32:37;101459.16;;;-10.42;100.00
804;BME280;25687;49.976;8.240;2022-12-18T03:35:04;101458.19;;;-10.44;100.00
804;BME280;25687;49.976;8.240;2022-12-18T03:37:31;101446.84;;;-10.55;100.00
804;BME280;25687;49.976;8.240;2022-12-18T03:39:57;101446.06;;;-10.54;100.00
804;BME280;25687;49.976;8.240;2022-12-18T03:42:32;101456.84;;;-10.53;100.00
804;BME280;25687;49.976;8.240;2022-12-18T03:45:10;101457.19;;;-10.47;100.00
804;BME280;25687;49.976;8.240;2022-12-18T03:50:16;101447.38;;;-10.44;100.00
804;BME280;25687;49.976;8.240;2022-12-18T03:53:06;101431.97;;;-10.53;100.00
804;BME280;25687;49.976;8.240;2022-12-18T03:55:35;101430.75;;;-10.45;100.00
804;BME280;25687;49.976;8.240;2022-12-18T03:58:02;101446.16;;;-10.36;100.00
804;BME280;25687;49.976;8.240;2022-12-18T04:00:29;101448.41;;;-10.41;100.00
804;BME280;25687;49.976;8.240;2022-12-18T04:02:57;101445.19;;;-10.55;100.00
804;BME280;25687;49.976;8.240;2022-12-18T04:05:25;101437.28;;;-10.47;100.00
804;BME280;25687;49.976;8.240;2022-12-18T04:07:53;101446.72;;;-10.42;100.00
804;BME280;25687;49.976;8.240;2022-12-18T04:10:20;101450.13;;;-10.40;100.00
804;BME280;25687;49.976;8.240;2022-12-18T04:12:45;101441.72;;;-10.42;100.00
804;BME280;25687;49.976;8.240;2022-12-18T04:15:11;101435.50;;;-10.50;100.00
804;BME280;25687;49.976;8.240;2022-12-18T04:17:38;101431.53;;;-10.46;100.00
804;BME280;25687;49.976;8.240;2022-12-18T04:20:07;101436.50;;;-10.46;100.00
804;BME280;25687;49.976;8.240;2022-12-18T04:22:33;101446.78;;;-10.40;100.00
804;BME280;25687;49.976;8.240;2022-12-18T04:24:58;101449.28;;;-10.40;100.00
804;BME280;25687;49.976;8.240;2022-12-18T04:27:23;101443.66;;;-10.52;100.00
804;BME280;25687;49.976;8.240;2022-12-18T04:29:49;101447.78;;;-10.68;100.00
804;BME280;25687;49.976;8.240;2022-12-18T04:32:14;101446.09;;;-10.84;100.00
804;BME280;25687;49.976;8.240;2022-12-18T04:34:39;101427.16;;;-10.82;100.00
804;BME280;25687;49.976;8.240;2022-12-18T04:37:04;101428.44;;;-10.74;100.00
804;BME280;25687;49.976;8.240;2022-12-18T04:39:33;101423.19;;;-10.63;100.00
804;BME280;25687;49.976;8.240;2022-12-18T04:41:58;101424.97;;;-10.61;100.00
804;BME280;25687;49.976;8.240;2022-12-18T04:44:23;101428.09;;;-10.48;100.00
804;BME280;25687;49.976;8.240;2022-12-18T04:46:49;101440.94;;;-10.41;100.00
804;BME280;25687;49.976;8.240;2022-12-18T04:49:14;101435.94;;;-10.57;100.00
804;BME280;25687;49.976;8.240;2022-12-18T04:51:39;101439.69;;;-10.49;100.00
804;BME280;25687;49.976;8.240;2022-12-18T04:54:05;101441.41;;;-10.48;100.00
804;BME280;25687;49.976;8.240;2022-12-18T04:56:31;101442.25;;;-10.47;100.00
804;BME280;25687;49.976;8.240;2022-12-18T04:58:56;101447.47;;;-10.43;100.00
804;BME280;25687;49.976;8.240;2022-12-18T05:01:21;101448.31;;;-10.42;100.00
804;BME280;25687;49.976;8.240;2022-12-18T05:03:47;101444.03;;;-10.45;100.00
804;BME280;25687;49.976;8.240;2022-12-18T05:06:12;101440.28;;;-10.53;100.00
804;BME280;25687;49.976;8.240;2022-12-18T05:08:38;101447.22;;;-10.47;100.00
804;BME280;25687;49.976;8.240;2022-12-18T05:11:09;101454.84;;;-10.44;100.00
804;BME280;25687;49.976;8.240;2022-12-18T05:13:35;101452.28;;;-10.29;100.00
804;BME280;25687;49.976;8.240;2022-12-18T05:16:01;101458.88;;;-10.30;100.00
804;BME280;25687;49.976;8.240;2022-12-18T05:18:27;101455.97;;;-10.39;100.00
804;BME280;25687;49.976;8.240;2022-12-18T05:20:54;101453.34;;;-10.57;100.00
804;BME280;25687;49.976;8.240;2022-12-18T05:23:20;101446.25;;;-10.66;100.00
804;BME280;25687;49.976;8.240;2022-12-18T05:25:51;101457.56;;;-10.56;100.00
804;BME280;25687;49.976;8.240;2022-12-18T05:28:16;101452.34;;;-10.44;100.00
804;BME280;25687;49.976;8.240;2022-12-18T05:30:47;101442.56;;;-10.41;100.00
804;BME280;25687;49.976;8.240;2022-12-18T05:33:13;101441.03;;;-10.39;100.00
804;BME280;25687;49.976;8.240;2022-12-18T05:35:38;101438.31;;;-10.44;100.00
804;BME280;25687;49.976;8.240;2022-12-18T05:38:03;101441.88;;;-10.39;100.00
804;BME280;25687;49.976;8.240;2022-12-18T05:40:28;101433.66;;;-10.38;100.00
804;BME280;25687;49.976;8.240;2022-12-18T05:42:54;101435.97;;;-10.41;100.00
804;BME280;25687;49.976;8.240;2022-12-18T05:45:19;101443.88;;;-10.31;100.00
804;BME280;25687;49.976;8.240;2022-12-18T05:47:45;101431.38;;;-10.33;100.00
804;BME280;25687;49.976;8.240;2022-12-18T05:50:10;101432.28;;;-10.31;100.00
804;BME280;25687;49.976;8.240;2022-12-18T05:52:36;101432.56;;;-10.43;100.00
804;BME280;25687;49.976;8.240;2022-12-18T05:55:01;101434.34;;;-10.40;100.00
804;BME280;25687;49.976;8.240;2022-12-18T05:57:26;101440.09;;;-10.41;100.00
804;BME280;25687;49.976;8.240;2022-12-18T05:59:51;101437.59;;;-10.41;100.00
804;BME280;25687;49.976;8.240;2022-12-18T06:02:17;101429.88;;;-10.46;100.00
804;BME280;25687;49.976;8.240;2022-12-18T06:04:42;101437.34;;;-10.46;100.00
804;BME280;25687;49.976;8.240;2022-12-18T06:07:07;101443.53;;;-10.39;100.00
804;BME280;25687;49.976;8.240;2022-12-18T06:09:33;101451.69;;;-10.42;100.00
804;BME280;25687;49.976;8.240;2022-12-18T06:11:58;101457.56;;;-10.40;100.00
804;BME280;25687;49.976;8.240;2022-12-18T06:14:27;101451.91;;;-10.37;100.00
804;BME280;25687;49.976;8.240;2022-12-18T06:16:52;101455.25;;;-10.36;100.00
804;BME280;25687;49.976;8.240;2022-12-18T06:19:17;101456.16;;;-10.34;100.00
804;BME280;25687;49.976;8.240;2022-12-18T06:21:43;101461.44;;;-10.28;100.00
804;BME280;25687;49.976;8.240;2022-12-18T06:24:08;101458.13;;;-10.29;100.00
804;BME280;25687;49.976;8.240;2022-12-18T06:26:33;101462.38;;;-10.26;100.00
804;BME280;25687;49.976;8.240;2022-12-18T06:28:59;101467.00;;;-10.17;100.00
804;BME280;25687;49.976;8.240;2022-12-18T06:31:25;101468.78;;;-10.15;100.00
804;BME280;25687;49.976;8.240;2022-12-18T06:33:50;101478.59;;;-10.18;100.00
804;BME280;25687;49.976;8.240;2022-12-18T06:36:16;101472.41;;;-10.25;100.00
804;BME280;25687;49.976;8.240;2022-12-18T06:38:43;101479.59;;;-10.14;100.00
804;BME280;25687;49.976;8.240;2022-12-18T06:41:09;101491.63;;;-10.22;100.00
804;BME280;25687;49.976;8.240;2022-12-18T06:43:35;101496.16;;;-10.15;100.00
804;BME280;25687;49.976;8.240;2022-12-18T06:46:01;101496.09;;;-10.00;100.00
804;BME280;25687;49.976;8.240;2022-12-18T06:48:27;101486.59;;;-10.07;100.00
804;BME280;25687;49.976;8.240;2022-12-18T06:50:52;101486.06;;;-10.01;100.00
804;BME280;25687;49.976;8.240;2022-12-18T06:53:17;101496.03;;;-10.01;100.00
804;BME280;25687;49.976;8.240;2022-12-18T06:55:43;101491.88;;;-10.01;100.00
804;BME280;25687;49.976;8.240;2022-12-18T06:58:08;101494.63;;;-9.96;100.00
804;BME280;25687;49.976;8.240;2022-12-18T07:00:33;101503.03;;;-9.94;100.00
804;BME280;25687;49.976;8.240;2022-12-18T07:02:59;101503.34;;;-9.88;100.00
804;BME280;25687;49.976;8.240;2022-12-18T07:05:24;101504.28;;;-9.86;100.00
804;BME280;25687;49.976;8.240;2022-12-18T07:07:49;101507.38;;;-9.74;100.00
804;BME280;25687;49.976;8.240;2022-12-18T07:10:14;101508.97;;;-9.76;100.00
804;BME280;25687;49.976;8.240;2022-12-18T07:12:40;101505.75;;;-9.73;100.00
804;BME280;25687;49.976;8.240;2022-12-18T07:15:06;101500.41;;;-9.64;100.00
804;BME280;25687;49.976;8.240;2022-12-18T07:17:32;101505.44;;;-9.63;100.00
804;BME280;25687;49.976;8.240;2022-12-18T07:19:57;101501.00;;;-9.52;100.00
804;BME280;25687;49.976;8.240;2022-12-18T07:22:25;101496.09;;;-9.50;100.00
804;BME280;25687;49.976;8.240;2022-12-18T07:24:51;101496.41;;;-9.44;100.00
804;BME280;25687;49.976;8.240;2022-12-18T07:27:16;101490.81;;;-9.40;100.00
804;BME280;25687;49.976;8.240;2022-12-18T07:29:41;101488.03;;;-9.28;100.00
804;BME280;25687;49.976;8.240;2022-12-18T07:32:06;101491.78;;;-9.20;100.00
804;BME280;25687;49.976;8.240;2022-12-18T07:34:32;101492.44;;;-9.06;100.00
804;BME280;25687;49.976;8.240;2022-12-18T07:36:57;101492.94;;;-8.95;100.00
804;BME280;25687;49.976;8.240;2022-12-18T07:39:23;101494.72;;;-8.93;100.00
804;BME280;25687;49.976;8.240;2022-12-18T07:41:48;101492.81;;;-8.80;100.00
804;BME280;25687;49.976;8.240;2022-12-18T07:44:33;101502.38;;;-8.71;100.00
804;BME280;25687;49.976;8.240;2022-12-18T07:46:59;101506.94;;;-8.63;100.00
804;BME280;25687;49.976;8.240;2022-12-18T07:49:24;101517.84;;;-8.61;100.00
804;BME280;25687;49.976;8.240;2022-12-18T07:51:49;101519.41;;;-8.63;100.00
804;BME280;25687;49.976;8.240;2022-12-18T07:54:15;101531.44;;;-8.54;100.00
804;BME280;25687;49.976;8.240;2022-12-18T07:56:40;101546.53;;;-8.51;100.00
804;BME280;25687;49.976;8.240;2022-12-18T07:59:05;101530.25;;;-8.43;100.00
804;BME280;25687;49.976;8.240;2022-12-18T08:01:31;101531.78;;;-8.46;100.00
804;BME280;25687;49.976;8.240;2022-12-18T08:03:57;101535.88;;;-8.66;100.00
804;BME280;25687;49.976;8.240;2022-12-18T08:06:23;101537.94;;;-8.57;100.00
804;BME280;25687;49.976;8.240;2022-12-18T08:08:48;101528.94;;;-8.36;100.00
804;BME280;25687;49.976;8.240;2022-12-18T08:11:13;101529.13;;;-8.31;100.00
804;BME280;25687;49.976;8.240;2022-12-18T08:13:39;101533.38;;;-8.29;100.00
804;BME280;25687;49.976;8.240;2022-12-18T08:16:06;101531.72;;;-8.10;100.00
804;BME280;25687;49.976;8.240;2022-12-18T08:18:34;101528.16;;;-7.97;100.00
804;BME280;25687;49.976;8.240;2022-12-18T08:21:14;101527.88;;;-8.03;100.00
804;BME280;25687;49.976;8.240;2022-12-18T08:23:40;101523.53;;;-7.88;100.00
804;BME280;25687;49.976;8.240;2022-12-18T08:26:06;101526.19;;;-7.65;100.00
804;BME280;25687;49.976;8.240;2022-12-18T08:28:31;101524.75;;;-7.60;100.00
804;BME280;25687;49.976;8.240;2022-12-18T08:30:57;101527.09;;;-7.63;100.00
804;BME280;25687;49.976;8.240;2022-12-18T08:33:22;101516.31;;;-7.82;100.00
804;BME280;25687;49.976;8.240;2022-12-18T08:35:47;101505.84;;;-7.73;100.00
804;BME280;25687;49.976;8.240;2022-12-18T08:38:13;101509.03;;;-7.57;100.00
804;BME280;25687;49.976;8.240;2022-12-18T08:40:38;101503.50;;;-7.70;100.00
804;BME280;25687;49.976;8.240;2022-12-18T08:43:03;101497.03;;;-7.45;100.00
804;BME280;25687;49.976;8.240;2022-12-18T08:45:47;101500.38;;;-7.44;100.00
804;BME280;25687;49.976;8.240;2022-12-18T08:48:12;101494.91;;;-7.36;100.00
804;BME280;25687;49.976;8.240;2022-12-18T08:50:38;101498.53;;;-7.29;100.00
804;BME280;25687;49.976;8.240;2022-12-18T08:53:03;101496.94;;;-7.06;100.00
804;BME280;25687;49.976;8.240;2022-12-18T08:55:28;101482.16;;;-6.78;100.00
804;BME280;25687;49.976;8.240;2022-12-18T08:57:54;101485.94;;;-5.99;100.00
804;BME280;25687;49.976;8.240;2022-12-18T09:00:19;101481.06;;;-5.70;100.00
804;BME280;25687;49.976;8.240;2022-12-18T09:02:45;101486.63;;;-5.02;100.00
804;BME280;25687;49.976;8.240;2022-12-18T09:05:10;101480.78;;;-4.46;100.00
804;BME280;25687;49.976;8.240;2022-12-18T09:07:35;101487.03;;;-3.72;100.00
804;BME280;25687;49.976;8.240;2022-12-18T09:10:01;101489.44;;;-3.45;100.00
804;BME280;25687;49.976;8.240;2022-12-18T09:12:26;101493.88;;;-2.99;100.00
804;BME280;25687;49.976;8.240;2022-12-18T09:14:52;101499.78;;;-2.21;100.00
804;BME280;25687;49.976;8.240;2022-12-18T09:17:17;101497.50;;;-2.10;100.00
804;BME280;25687;49.976;8.240;2022-12-18T09:19:42;101507.34;;;-2.21;100.00
804;BME280;25687;49.976;8.240;2022-12-18T09:22:08;101510.47;;;-2.33;100.00
804;BME280;25687;49.976;8.240;2022-12-18T09:24:34;101506.88;;;-2.44;100.00
804;BME280;25687;49.976;8.240;2022-12-18T09:27:00;101509.66;;;-2.70;100.00
804;BME280;25687;49.976;8.240;2022-12-18T09:29:25;101512.72;;;-2.47;100.00
804;BME280;25687;49.976;8.240;2022-12-18T09:31:50;101505.44;;;-2.33;100.00
804;BME280;25687;49.976;8.240;2022-12-18T09:34:16;101510.41;;;-2.36;100.00
804;BME280;25687;49.976;8.240;2022-12-18T09:36:41;101510.59;;;-2.27;100.00
804;BME280;25687;49.976;8.240;2022-12-18T09:39:10;101509.56;;;-3.10;100.00
804;BME280;25687;49.976;8.240;2022-12-18T09:41:47;101506.59;;;-3.62;100.00
804;BME280;25687;49.976;8.240;2022-12-18T09:47:03;101511.47;;;-3.34;100.00
804;BME280;25687;49.976;8.240;2022-12-18T09:49:31;101516.50;;;-3.68;100.00
804;BME280;25687;49.976;8.240;2022-12-18T09:52:04;101511.09;;;-4.11;100.00
804;BME280;25687;49.976;8.240;2022-12-18T09:54:40;101504.78;;;-3.98;100.00
804;BME280;25687;49.976;8.240;2022-12-18T09:57:12;101502.88;;;-4.07;100.00
804;BME280;25687;49.976;8.240;2022-12-18T09:59:39;101499.03;;;-3.94;100.00
804;BME280;25687;49.976;8.240;2022-12-18T10:02:17;101509.06;;;-4.24;100.00
804;BME280;25687;49.976;8.240;2022-12-18T10:04:43;101511.34;;;-4.61;100.00
804;BME280;25687;49.976;8.240;2022-12-18T10:07:19;101518.56;;;-4.97;100.00
804;BME280;25687;49.976;8.240;2022-12-18T10:10:00;101519.38;;;-5.24;100.00
804;BME280;25687;49.976;8.240;2022-12-18T10:12:47;101510.47;;;-5.40;100.00
804;BME280;25687;49.976;8.240;2022-12-18T10:15:28;101498.41;;;-5.76;100.00
804;BME280;25687;49.976;8.240;2022-12-18T10:20:57;101486.31;;;-6.12;100.00
804;BME280;25687;49.976;8.240;2022-12-18T10:23:39;101493.97;;;-6.30;100.00
804;BME280;25687;49.976;8.240;2022-12-18T10:26:09;101488.94;;;-6.32;100.00
804;BME280;25687;49.976;8.240;2022-12-18T10:28:36;101484.47;;;-6.17;100.00
804;BME280;25687;49.976;8.240;2022-12-18T10:31:26;101487.59;;;-6.00;100.00
804;BME280;25687;49.976;8.240;2022-12-18T10:33:51;101485.09;;;-5.98;100.00
804;BME280;25687;49.976;8.240;2022-12-18T10:36:18;101490.31;;;-5.92;100.00
804;BME280;25687;49.976;8.240;2022-12-18T10:38:43;101499.81;;;-5.83;100.00
804;BME280;25687;49.976;8.240;2022-12-18T10:46:35;101484.84;;;-6.06;100.00
804;BME280;25687;49.976;8.240;2022-12-18T10:49:00;101491.88;;;-5.95;100.00
804;BME280;25687;49.976;8.240;2022-12-18T10:54:05;101498.81;;;-5.64;100.00
804;BME280;25687;49.976;8.240;2022-12-18T10:56:34;101486.25;;;-5.40;100.00
804;BME280;25687;49.976;8.240;2022-12-18T10:59:07;101487.00;;;-5.16;100.00
804;BME280;25687;49.976;8.240;2022-12-18T11:01:49;101494.13;;;-5.29;100.00
804;BME280;25687;49.976;8.240;2022-12-18T11:04:30;101486.75;;;-5.50;100.00
804;BME280;25687;49.976;8.240;2022-12-18T11:06:59;101488.84;;;-5.62;100.00
804;BME280;25687;49.976;8.240;2022-12-18T11:09:31;101474.16;;;-5.52;100.00
804;BME280;25687;49.976;8.240;2022-12-18T11:12:00;101474.31;;;-5.47;100.00
804;BME280;25687;49.976;8.240;2022-12-18T11:14:32;101489.47;;;-5.44;100.00
804;BME280;25687;49.976;8.240;2022-12-18T11:17:00;101485.91;;;-5.51;100.00
804;BME280;25687;49.976;8.240;2022-12-18T11:19:36;101490.97;;;-5.23;100.00
804;BME280;25687;49.976;8.240;2022-12-18T11:22:26;101486.41;;;-5.09;100.00
804;BME280;25687;49.976;8.240;2022-12-18T11:27:37;101488.53;;;-5.46;100.00
804;BME280;25687;49.976;8.240;2022-12-18T11:30:28;101487.97;;;-5.39;100.00
804;BME280;25687;49.976;8.240;2022-12-18T11:33:18;101486.19;;;-5.41;100.00
804;BME280;25687;49.976;8.240;2022-12-18T11:36:00;101472.00;;;-5.67;100.00
804;BME280;25687;49.976;8.240;2022-12-18T11:38:40;101474.88;;;-5.80;100.00
804;BME280;25687;49.976;8.240;2022-12-18T11:41:54;101475.63;;;-5.82;100.00
804;BME280;25687;49.976;8.240;2022-12-18T11:44:41;101475.34;;;-5.66;100.00
804;BME280;25687;49.976;8.240;2022-12-18T11:47:36;101479.69;;;-5.36;100.00
804;BME280;25687;49.976;8.240;2022-12-18T11:50:09;101476.16;;;-4.90;100.00
804;BME280;25687;49.976;8.240;2022-12-18T11:52:38;101478.09;;;-4.81;100.00
804;BME280;25687;49.976;8.240;2022-12-18T11:57:52;101479.41;;;-4.92;100.00
804;BME280;25687;49.976;8.240;2022-12-18T12:00:21;101484.28;;;-4.97;100.00
804;BME280;25687;49.976;8.240;2022-12-18T12:06:28;101477.66;;;-4.95;100.00
804;BME280;25687;49.976;8.240;2022-12-18T12:09:15;101475.19;;;-4.93;100.00
804;BME280;25687;49.976;8.240;2022-12-18T12:17:54;101457.38;;;-4.45;100.00
804;BME280;25687;49.976;8.240;2022-12-18T12:26:07;101458.06;;;-4.22;100.00
804;BME280;25687;49.976;8.240;2022-12-18T12:28:54;101446.91;;;-4.30;100.00
804;BME280;25687;49.976;8.240;2022-12-18T12:31:37;101446.75;;;-4.36;100.00
804;BME280;25687;49.976;8.240;2022-12-18T12:39:37;101453.13;;;-3.86;100.00
804;BME280;25687;49.976;8.240;2022-12-18T12:42:06;101448.97;;;-4.16;100.00
804;BME280;25687;49.976;8.240;2022-12-18T12:44:57;101434.66;;;-4.19;100.00
804;BME280;25687;49.976;8.240;2022-12-18T12:47:27;101427.72;;;-3.96;100.00
804;BME280;25687;49.976;8.240;2022-12-18T12:49:56;101423.69;;;-4.23;100.00
804;BME280;25687;49.976;8.240;2022-12-18T12:52:44;101414.06;;;-4.66;100.00
804;BME280;25687;49.976;8.240;2022-12-18T12:55:40;101421.59;;;-4.95;100.00
804;BME280;25687;49.976;8.240;2022-12-18T12:58:17;101417.09;;;-5.06;100.00
804;BME280;25687;49.976;8.240;2022-12-18T13:00:54;101418.91;;;-5.00;100.00
804;BME280;25687;49.976;8.240;2022-12-18T13:08:57;101411.13;;;-5.37;100.00
804;BME280;25687;49.976;8.240;2022-12-18T13:11:36;101411.47;;;-5.26;100.00
804;BME280;25687;49.976;8.240;2022-12-18T13:17:17;101406.00;;;-5.12;100.00
804;BME280;25687;49.976;8.240;2022-12-18T13:19:51;101406.25;;;-5.32;100.00
804;BME280;25687;49.976;8.240;2022-12-18T13:22:22;101400.72;;;-5.22;100.00
804;BME280;25687;49.976;8.240;2022-12-18T13:24:48;101393.41;;;-5.14;100.00
804;BME280;25687;49.976;8.240;2022-12-18T13:35:41;101390.69;;;-4.93;100.00
804;BME280;25687;49.976;8.240;2022-12-18T13:41:04;101384.44;;;-5.07;100.00
804;BME280;25687;49.976;8.240;2022-12-18T13:43:50;101376.66;;;-5.15;100.00
804;BME280;25687;49.976;8.240;2022-12-18T13:48:49;101379.44;;;-5.35;100.00
804;BME280;25687;49.976;8.240;2022-12-18T13:51:17;101383.94;;;-5.23;100.00
804;BME280;25687;49.976;8.240;2022-12-18T13:53:48;101381.09;;;-5.33;100.00
804;BME280;25687;49.976;8.240;2022-12-18T13:56:16;101378.09;;;-5.51;100.00
804;BME280;25687;49.976;8.240;2022-12-18T13:58:42;101379.84;;;-5.48;100.00
804;BME280;25687;49.976;8.240;2022-12-18T14:01:33;101380.78;;;-5.44;100.00
804;BME280;25687;49.976;8.240;2022-12-18T14:04:34;101374.91;;;-5.18;100.00
804;BME280;25687;49.976;8.240;2022-12-18T14:07:07;101368.28;;;-5.15;100.00
804;BME280;25687;49.976;8.240;2022-12-18T14:09:39;101369.41;;;-5.06;100.00
804;BME280;25687;49.976;8.240;2022-12-18T14:12:06;101371.78;;;-5.10;100.00
804;BME280;25687;49.976;8.240;2022-12-18T14:14:58;101374.41;;;-5.07;100.00
804;BME280;25687;49.976;8.240;2022-12-18T14:17:24;101375.97;;;-5.11;100.00
804;BME280;25687;49.976;8.240;2022-12-18T14:19:50;101379.31;;;-5.10;100.00
804;BME280;25687;49.976;8.240;2022-12-18T14:22:21;101386.84;;;-5.10;100.00
804;BME280;25687;49.976;8.240;2022-12-18T14:27:41;101394.22;;;-5.15;100.00
804;BME280;25687;49.976;8.240;2022-12-18T14:30:30;101379.97;;;-5.16;100.00
804;BME280;25687;49.976;8.240;2022-12-18T14:35:35;101369.50;;;-5.03;100.00
804;BME280;25687;49.976;8.240;2022-12-18T14:38:22;101373.34;;;-5.14;100.00